Latest Weather Observations for Christmas Creek

IDW60801

Issued at 3:02 pm WST Monday 2 March 2015 (issued every 30 minutes, with the page automatically refreshed every 10 minutes)

About weather observations | Map of weather stations | Latest weather observations for WA | Other Formats
Station Details ID: 505049 Name: CHRISTMAS CREEK Lat: -22.36 Lon: 119.65 Height: 437.21 m
Data from the previous 72 hours. | See also: Recent months for locations in Western Australia
Date/Time
WST
Temp
°C
App
Temp
°C
Dew
Point
Rel
Hum
%
Delta-T
°C
Wind Press
QNH
hPa
Press
MSL
hPa
Rain
since 9 am
mm
Dir
 
Spd
km/h
Gust
km/h
Spd
kts
Gust
kts
02/03:00pm 35.7 35.8 17.4 33 12.0 N 13 22 7 12 1005.2 1002.0 0.0
02/02:30pm 35.2 33.8 17.0 34 11.9 NNW 20 32 11 17 1005.8 1002.7 0.0
02/02:00pm 35.1 35.1 17.3 34 11.7 WNW 13 20 7 11 1006.4 1003.2 0.0
02/01:30pm 34.9 35.2 17.8 36 11.2 NW 13 26 7 14 1006.8 1003.6 0.0
02/01:00pm 34.0 34.3 17.9 38 10.6 NNE 13 32 7 17 1007.3 1004.1 0.0
02/12:30pm 33.7 35.4 18.6 40 10.0 NW 7 17 4 9 1007.5 1004.4 0.0
02/12:00pm 33.2 36.1 20.6 47 8.6 SSE 6 13 3 7 1008.2 1005.1 0.0
02/11:30am 31.8 34.3 19.9 49 8.0 SE 6 13 3 7 1009.0 1005.8 0.0
02/11:00am 31.3 34.1 20.4 52 7.4 SE 6 13 3 7 1009.5 1006.4 0.0
02/10:30am 30.9 34.1 20.5 54 7.0 NNW 4 9 2 5 1010.1 1007.0 0.0
02/10:00am 30.4 33.2 21.5 59 6.1 SSW 9 19 5 10 1010.3 1007.2 0.0
02/09:30am 30.0 33.1 21.4 60 5.9 SE 7 11 4 6 1010.4 1007.3 0.0
02/09:00am 29.3 33.0 21.4 62 5.4 SSW 4 7 2 4 1010.5 1007.4 13.6
02/08:30am 28.3 31.5 21.3 65 4.7 SW 6 11 3 6 1010.1 1007.0 13.6
02/08:00am 27.6 29.9 21.3 68 4.3 WSW 11 19 6 10 1009.8 1006.7 13.6
02/07:30am 26.7 29.1 21.5 73 3.5 WNW 11 15 6 8 1009.4 1006.2 13.6
02/07:00am 26.0 28.8 21.6 76 3.0 WNW 9 13 5 7 1009.2 1006.0 13.6
02/06:30am 25.0 28.2 21.2 79 2.5 WNW 6 7 3 4 1009.2 1006.0 13.6
02/06:00am 24.8 27.3 21.1 80 2.5 NW 9 13 5 7 1009.1 1005.9 13.6
02/05:30am 24.8 27.4 21.2 80 2.4 NNW 9 15 5 8 1008.8 1005.6 13.6
02/05:00am 24.7 26.5 21.2 81 2.3 NNW 13 15 7 8 1008.7 1005.5 13.6
02/04:30am 24.9 27.0 21.0 79 2.6 NNW 11 15 6 8 1008.2 1005.1 13.6
02/04:00am 25.1 26.7 20.8 77 2.9 NNW 13 17 7 9 1008.3 1005.2 13.6
02/03:30am 25.4 27.0 20.8 75 3.1 NNW 13 19 7 10 1008.3 1005.2 13.6
02/03:00am 25.6 26.9 20.8 75 3.2 NNW 15 19 8 10 1008.6 1005.4 13.6
02/02:30am 25.7 27.7 20.8 74 3.3 NNW 11 17 6 9 1008.8 1005.6 13.6
02/02:00am 25.7 27.9 21.1 76 3.1 N 11 15 6 8 1008.7 1005.5 13.6
02/01:30am 26.6 28.0 20.3 68 4.2 NNW 13 20 7 11 1008.7 1005.5 13.6
02/01:00am 26.8 27.7 20.8 69 4.0 NW 17 24 9 13 1008.7 1005.5 13.6
02/12:30am 26.8 29.7 22.5 77 2.9 NNW 11 15 6 8 1009.2 1006.0 13.6
02/12:00am 27.2 29.6 22.9 77 3.0 N 15 20 8 11 1009.2 1006.0 13.6
 
Date/Time
WST
Temp
°C
App
Temp
°C
Dew
Point
Rel
Hum
%
Delta-T
°C
Wind Press
QNH
hPa
Press
MSL
hPa
Rain
since 9 am
mm
Dir
 
Spd
km/h
Gust
km/h
Spd
kts
Gust
kts
01/11:30pm 27.6 30.7 22.8 75 3.3 NNW 11 15 6 8 1009.3 1006.1 13.6
01/11:00pm 27.7 31.3 23.1 76 3.2 N 9 13 5 7 1009.5 1006.4 13.6
01/10:30pm 27.5 30.9 23.4 78 2.8 NNE 11 13 6 7 1009.5 1006.4 13.6
01/10:00pm 28.0 31.1 22.8 73 3.6 N 11 13 6 7 1009.3 1006.1 13.6
01/09:30pm 27.7 31.7 23.7 79 2.8 N 9 11 5 6 1009.0 1005.8 13.6
01/09:00pm 27.5 31.6 23.9 81 2.5 NNE 9 13 5 7 1008.8 1005.6 13.6
01/08:30pm 26.9 32.4 24.7 88 1.6 ENE 4 6 2 3 1008.7 1005.5 13.6
01/08:00pm 27.2 31.5 23.3 79 2.7 E 6 6 3 3 1008.7 1005.5 13.6
01/07:30pm 27.6 31.5 22.6 74 3.4 NE 6 7 3 4 1008.7 1005.5 13.6
01/07:00pm 27.4 31.4 22.7 75 3.2 ESE 6 9 3 5 1008.7 1005.5 13.6
01/06:30pm 27.5 31.3 22.4 73 3.5 ENE 6 9 3 5 1008.2 1005.1 13.6
01/06:00pm 27.8 30.7 22.4 72 3.7 NE 11 15 6 8 1007.4 1004.3 13.6
01/05:30pm 28.2 30.7 23.1 74 3.5 NE 15 19 8 10 1007.6 1004.5 13.6
01/05:00pm 28.4 31.1 22.1 68 4.3 ENE 11 20 6 11 1007.5 1004.4 13.6
01/04:54pm 27.2 29.7 21.1 69 4.1 ESE 9 15 5 8 1007.6 1004.5 13.6
01/04:30pm 25.0 23.5 21.7 82 2.2 NNW 32 46 17 25 1008.8 1005.6 9.2
01/04:29pm 26.3 24.9 22.0 77 2.9 NNW 32 46 17 25 1008.2 1005.1 7.4
01/04:28pm 27.3 26.6 21.8 72 3.7 N 28 44 15 24 1007.8 1004.7 6.4
01/04:00pm 29.9 33.7 24.0 70 4.2 SE 11 20 6 11 1007.1 1003.9 6.0
01/03:47pm 27.5 29.1 22.8 75 3.2 SE 19 30 10 16 1007.2 1004.0 6.0
01/03:34pm 26.9 24.8 21.6 72 3.6 ESE 35 52 19 28 1007.3 1004.1 5.0
01/03:30pm 27.1 23.9 21.8 73 3.6 E 41 70 22 38 1007.2 1004.0 5.0
01/03:26pm 26.2 25.4 22.4 79 2.6 ENE 30 70 16 38 1007.7 1004.6 3.2
01/03:22pm 28.7 30.4 23.1 71 3.9 N 19 70 10 38 1006.8 1003.6 0.6
01/03:21pm 31.0 34.0 23.4 64 5.3 NNW 13 48 7 26 1007.3 1004.1 0.2
01/03:00pm 33.6 36.0 20.8 47 8.7 WSW 9 17 5 9 1007.2 1004.0 0.0
01/02:30pm 31.9 33.0 20.5 51 7.7 WSW 15 20 8 11 1007.6 1004.5 0.0
01/02:01pm 32.2 33.0 20.6 50 7.9 N 17 50 9 27 1007.9 1004.8 0.0
01/02:00pm 32.7 33.2 19.3 45 9.0 N 15 50 8 27 1008.0 1004.9 0.0
01/01:30pm 32.2 32.5 19.7 47 8.4 E 17 30 9 16 1008.3 1005.2 0.0
01/01:00pm 31.9 32.4 20.0 49 8.0 ESE 17 26 9 14 1009.0 1005.8 0.0
01/12:30pm 31.3 31.8 20.1 51 7.5 E 17 30 9 16 1009.4 1006.2 0.0
01/12:00pm 30.4 31.0 21.1 57 6.3 ESE 19 32 10 17 1010.1 1007.0 0.0
01/11:30am 30.1 31.3 21.4 59 5.9 ESE 17 26 9 14 1010.6 1007.5 0.0
01/11:00am 28.5 29.1 21.3 65 4.9 ESE 20 30 11 16 1011.4 1008.2 0.0
01/10:30am 30.8 31.0 22.1 59 6.0 ESE 24 33 13 18 1011.9 1008.8 0.0
01/10:00am 27.6 27.4 21.3 68 4.3 ESE 24 37 13 20 1012.1 1009.0 0.0
01/09:30am 26.9 26.4 21.5 72 3.7 ESE 26 37 14 20 1012.3 1009.2 0.0
01/09:00am 26.3 25.9 21.7 76 3.1 SE 26 35 14 19 1012.4 1009.3 2.4
01/08:32am 25.8 26.5 22.3 81 2.4 SE 22 32 12 17 1012.4 1009.3 2.2
01/08:30am 25.8 26.6 22.4 81 2.3 SE 22 32 12 17 1012.4 1009.3 2.2
01/08:11am 25.6 26.6 22.9 85 1.9 SE 22 30 12 16 1012.3 1009.2 2.2
01/08:02am 25.3 26.2 22.7 85 1.8 SE 22 33 12 18 1012.4 1009.3 2.2
01/08:00am 25.4 26.4 22.8 85 1.8 SE 22 33 12 18 1012.4 1009.3 2.2
01/07:30am 24.9 26.1 23.2 90 1.2 SE 22 32 12 17 1012.1 1008.6 2.2
01/07:00am 24.8 27.9 23.5 92 0.9 SE 13 20 7 11 1011.9 1008.4 2.2
01/06:58am 24.8 28.1 23.8 94 0.7 SE 13 20 7 11 1011.9 1008.4 2.2
01/06:30am 24.5 27.5 23.4 94 0.8 SE 13 19 7 10 1011.8 1008.3 2.2
01/06:00am 24.7 28.3 23.7 94 0.7 ESE 11 15 6 8 1011.6 1008.1 2.2
01/05:34am 24.5 27.9 23.4 94 0.8 SE 11 17 6 9 1011.3 1007.8 2.2
01/05:30am 24.5 27.3 23.0 91 1.0 SE 13 17 7 9 1011.3 1007.8 2.2
01/05:15am 24.4 26.2 21.8 85 1.8 ESE 15 20 8 11 1011.0 1007.4 1.6
01/05:00am 25.8 27.8 20.8 74 3.3 SSE 11 15 6 8 1010.5 1007.0 0.0
01/04:30am 25.8 28.4 21.2 76 3.1 SSW 9 11 5 6 1009.9 1006.4 0.0
01/04:00am 25.8 29.2 21.0 75 3.2 SSW 4 7 2 4 1009.8 1006.3 0.0
01/03:30am 25.9 29.0 21.4 76 3.0 SSW 7 11 4 6 1009.4 1005.9 0.0
01/03:00am 26.3 29.7 21.6 75 3.2 SSW 6 9 3 5 1009.5 1006.0 0.0
01/02:30am 26.3 29.1 21.5 75 3.2 WSW 9 17 5 9 1009.5 1006.0 0.0
01/02:00am 26.2 29.4 21.7 76 3.1 W 7 13 4 7 1009.0 1005.4 0.0
01/01:30am 26.2 28.7 21.8 77 3.0 W 11 19 6 10 1009.3 1005.8 0.0
01/01:00am 26.3 28.1 21.9 77 3.0 NW 15 20 8 11 1009.7 1006.2 0.0
01/12:30am 26.6 26.9 22.2 77 3.0 NW 24 33 13 18 1009.5 1006.0 0.0
01/12:00am 26.9 28.2 22.4 76 3.1 WNW 19 24 10 13 1009.7 1006.2 0.0
 
Date/Time
WST
Temp
°C
App
Temp
°C
Dew
Point
Rel
Hum
%
Delta-T
°C
Wind Press
QNH
hPa
Press
MSL
hPa
Rain
since 9 am
mm
Dir
 
Spd
km/h
Gust
km/h
Spd
kts
Gust
kts
28/11:30pm 27.3 28.5 22.1 73 3.6 NNW 19 26 10 14 1010.0 1006.5 0.0
28/11:00pm 27.8 29.2 21.9 70 4.0 N 17 24 9 13 1011.2 1007.7 0.0
28/10:30pm 27.9 27.9 21.6 68 4.3 NNW 24 37 13 20 1010.5 1007.0 0.0
28/10:00pm 28.6 28.5 20.8 62 5.3 NNW 22 30 12 16 1009.8 1006.3 0.0
28/09:30pm 28.4 25.8 20.6 62 5.2 NNW 35 54 19 29 1009.0 1005.4 0.0
28/09:22pm 28.5 24.7 20.5 62 5.4 N 41 59 22 32 1009.4 1005.9 0.0
28/09:00pm 29.6 25.1 20.0 56 6.4 N 43 57 23 31 1009.3 1005.8 0.0
28/08:38pm 32.4 29.3 19.6 46 8.6 N 35 57 19 31 1009.0 1005.4 0.0
28/08:33pm 33.7 32.1 19.2 42 9.7 NNE 26 57 14 31 1008.6 1005.0 0.0
28/08:30pm 34.3 33.7 18.5 39 10.5 NNE 19 32 10 17 1008.6 1005.0 0.0
28/08:00pm 34.7 35.6 17.5 36 11.3 NNE 9 13 5 7 1008.0 1004.5 0.0
28/07:30pm 35.0 35.0 17.3 35 11.6 N 13 17 7 9 1007.0 1003.5 0.0
28/07:00pm 35.2 34.1 17.2 34 11.8 N 19 24 10 13 1006.9 1003.3 0.0
28/06:30pm 36.0 35.2 17.9 34 12.0 NNE 19 28 10 15 1006.3 1002.7 0.0
28/06:00pm 36.6 34.4 17.9 33 12.4 NE 26 33 14 18 1005.8 1002.3 0.0
28/05:30pm 37.3 36.9 18.0 32 12.8 ENE 17 26 9 14 1005.6 1002.1 0.0
28/05:00pm 35.9 33.5 18.3 35 11.7 ENE 28 41 15 22 1005.5 1002.0 0.0
28/04:30pm 37.7 35.3 17.3 30 13.4 NNW 26 39 14 21 1005.6 1002.1 0.0
28/04:00pm 37.7 36.2 16.8 29 13.7 N 20 32 11 17 1005.8 1002.3 0.0
28/03:30pm 37.9 36.3 16.6 28 13.9 N 20 33 11 18 1006.2 1002.6 0.0
28/03:00pm 37.3 37.8 16.5 29 13.6 NNE 9 24 5 13 1006.4 1002.8 0.0
28/02:30pm 37.8 38.4 16.7 29 13.8 N 9 20 5 11 1006.9 1003.3 0.0
28/02:00pm 37.2 37.8 16.8 30 13.4 WNW 9 19 5 10 1007.2 1003.7 0.0
28/01:30pm 37.9 37.2 16.5 28 14.0 NE 15 26 8 14 1007.7 1004.2 0.0
28/01:00pm 37.1 38.4 17.0 30 13.2 E 6 20 3 11 1008.3 1004.8 0.0
28/12:30pm 37.0 37.2 17.7 32 12.8 NNE 13 32 7 17 1008.9 1005.3 0.0
28/12:00pm 36.5 37.2 17.0 31 12.8 N 9 17 5 9 1009.4 1005.9 0.0
28/11:30am 36.2 37.9 18.4 35 11.8 W 7 19 4 10 1009.8 1006.3 0.0
28/11:00am 35.5 36.9 18.7 37 11.2 WNW 9 20 5 11 1010.2 1006.7 0.0
28/10:30am 34.8 37.2 19.6 40 10.2 SSW 6 17 3 9 1010.5 1007.0 0.0
28/10:00am 34.1 36.6 19.0 41 10.1 E 4 9 2 5 1010.9 1007.3 0.0
28/09:30am 32.6 34.0 19.6 46 8.7 SW 11 19 6 10 1011.2 1007.7 0.0
28/09:00am 31.8 32.8 19.4 47 8.3 WNW 13 20 7 11 1011.3 1007.8 0.0
28/08:30am 30.6 31.4 19.1 50 7.6 W 13 19 7 10 1011.3 1007.8 0.0
28/08:00am 30.2 31.0 19.0 51 7.4 W 13 19 7 10 1011.3 1007.8 0.0
28/07:30am 29.3 29.6 18.8 53 6.9 WNW 15 19 8 10 1011.1 1007.5 0.0
28/07:00am 28.1 29.4 19.2 58 5.9 WNW 11 17 6 9 1010.7 1007.2 0.0
28/06:30am 26.9 29.0 20.1 66 4.5 NW 9 13 5 7 1010.5 1007.0 0.0
28/06:00am 26.7 28.3 19.9 66 4.5 NW 11 15 6 8 1010.1 1006.6 0.0
28/05:30am 26.8 27.6 19.8 65 4.6 NNW 15 20 8 11 1009.8 1006.3 0.0
28/05:00am 26.9 27.7 19.9 65 4.6 NNW 15 20 8 11 1009.5 1006.0 0.0
28/04:30am 26.9 27.5 20.2 66 4.5 NNW 17 26 9 14 1009.2 1005.7 0.0
28/04:00am 27.0 27.7 20.5 67 4.3 NNW 17 22 9 12 1009.0 1005.4 0.0
28/03:30am 27.1 28.4 20.9 69 4.2 NNW 15 22 8 12 1009.0 1005.4 0.0
28/03:00am 27.4 28.9 20.6 66 4.6 NNW 13 19 7 10 1009.1 1005.6 0.0
28/02:30am 27.7 28.9 20.6 65 4.8 NNW 15 22 8 12 1009.1 1005.6 0.0
28/02:00am 27.9 28.4 20.8 65 4.8 NW 19 22 10 12 1008.9 1005.3 0.0
28/01:30am 28.1 28.4 20.8 64 4.9 NW 20 26 11 14 1009.0 1005.4 0.0
28/01:00am 28.5 28.8 20.8 63 5.2 NNW 20 26 11 14 1009.0 1005.4 0.0
28/12:30am 29.0 29.1 21.2 62 5.3 NW 22 28 12 15 1009.3 1005.8 0.0
28/12:00am 29.4 29.9 20.9 60 5.8 NNW 19 26 10 14 1009.4 1005.9 0.0
 
Date/Time
WST
Temp
°C
App
Temp
°C
Dew
Point
Rel
Hum
%
Delta-T
°C
Wind Press
QNH
hPa
Press
MSL
hPa
Rain
since 9 am
mm
Dir
 
Spd
km/h
Gust
km/h
Spd
kts
Gust
kts
27/11:30pm 29.9 29.3 20.4 56 6.4 NW 24 32 13 17 1009.4 1005.9 0.0
27/11:00pm 30.8 31.8 19.5 51 7.5 NNW 13 19 7 10 1009.4 1005.9 0.0
27/10:30pm 31.4 31.9 18.4 46 8.5 N 13 15 7 8 1009.5 1006.0 0.0
27/10:00pm 31.7 32.5 18.1 44 8.9 N 11 15 6 8 1009.6 1006.1 0.0
27/09:30pm 32.3 32.5 17.7 41 9.5 N 13 17 7 9 1009.5 1006.0 0.0
27/09:00pm 32.6 32.9 17.9 41 9.6 N 13 15 7 8 1009.1 1005.6 0.0
27/08:30pm 33.2 33.1 17.9 40 10.0 N 15 20 8 11 1008.7 1005.1 0.0
27/08:00pm 33.6 34.0 18.1 39 10.2 N 13 17 7 9 1008.1 1004.6 0.0
27/07:30pm 34.2 35.3 17.9 38 10.7 N 9 13 5 7 1007.7 1004.2 0.0
27/07:00pm 34.5 34.7 17.6 36 11.1 NNE 13 17 7 9 1007.1 1003.6 0.0
27/06:30pm 35.1 35.1 17.1 34 11.7 NNE 13 19 7 10 1006.4 1002.8 0.0
27/06:00pm 35.5 35.5 17.1 33 12.0 NNE 13 19 7 10 1006.1 1002.5 0.0
27/05:30pm 36.1 35.0 16.4 31 12.8 N 17 22 9 12 1005.8 1002.3 0.0
27/05:00pm 35.9 34.3 16.1 30 12.8 N 19 26 10 14 1005.7 1002.2 0.0
27/04:30pm 36.0 35.0 16.6 31 12.6 NNE 17 30 9 16 1005.8 1002.3 0.0
27/04:00pm 36.4 34.5 16.8 31 12.8 NNE 22 32 12 17 1005.9 1002.4 0.0
27/03:30pm 36.4 34.9 16.3 30 13.0 NNE 19 32 10 17 1006.3 1002.7 0.0

Other Formats:

Comma delimited format used in spreadsheet applications
http://www.bom.gov.au/fwo/IDW60801/IDW60801.99737.axf

JavaScript Object Notation format (JSON) in row-major order
http://www.bom.gov.au/fwo/IDW60801/IDW60801.99737.json